sensor_id;sensor_type;location;lat;lon;timestamp;P1;durP1;ratioP1;P2;durP2;ratioP2
37995;SDS011;23808;50.634;6.948;2022-07-05T00:01:47;4.43;;;3.13;;
37995;SDS011;23808;50.634;6.948;2022-07-05T00:05:47;12.13;;;3.67;;
37995;SDS011;23808;50.634;6.948;2022-07-05T00:09:49;8.73;;;3.80;;
37995;SDS011;23808;50.634;6.948;2022-07-05T00:13:52;4.83;;;3.73;;
37995;SDS011;23808;50.634;6.948;2022-07-05T00:17:52;5.73;;;4.00;;
37995;SDS011;23808;50.634;6.948;2022-07-05T00:21:53;3.97;;;3.57;;
37995;SDS011;23808;50.634;6.948;2022-07-05T00:25:54;6.33;;;5.20;;
37995;SDS011;23808;50.634;6.948;2022-07-05T00:29:54;5.93;;;5.33;;
37995;SDS011;23808;50.634;6.948;2022-07-05T00:33:55;13.63;;;5.20;;
37995;SDS011;23808;50.634;6.948;2022-07-05T00:37:55;13.80;;;6.30;;
37995;SDS011;23808;50.634;6.948;2022-07-05T00:41:56;5.83;;;5.33;;
37995;SDS011;23808;50.634;6.948;2022-07-05T00:45:57;12.33;;;6.20;;
37995;SDS011;23808;50.634;6.948;2022-07-05T00:49:58;9.97;;;6.57;;
37995;SDS011;23808;50.634;6.948;2022-07-05T00:53:59;10.87;;;7.20;;
37995;SDS011;23808;50.634;6.948;2022-07-05T00:58:00;7.20;;;6.50;;
37995;SDS011;23808;50.634;6.948;2022-07-05T01:02:01;13.80;;;7.30;;
37995;SDS011;23808;50.634;6.948;2022-07-05T01:06:02;10.23;;;7.43;;
37995;SDS011;23808;50.634;6.948;2022-07-05T01:10:06;16.23;;;9.40;;
37995;SDS011;23808;50.634;6.948;2022-07-05T01:14:07;7.20;;;6.33;;
37995;SDS011;23808;50.634;6.948;2022-07-05T01:18:11;10.53;;;7.60;;
37995;SDS011;23808;50.634;6.948;2022-07-05T01:22:18;8.13;;;6.83;;
37995;SDS011;23808;50.634;6.948;2022-07-05T01:26:19;15.23;;;6.43;;
37995;SDS011;23808;50.634;6.948;2022-07-05T01:30:21;8.97;;;6.73;;
37995;SDS011;23808;50.634;6.948;2022-07-05T01:34:22;8.80;;;6.73;;
37995;SDS011;23808;50.634;6.948;2022-07-05T01:38:23;11.83;;;6.33;;
37995;SDS011;23808;50.634;6.948;2022-07-05T01:42:26;11.70;;;8.10;;
37995;SDS011;23808;50.634;6.948;2022-07-05T01:46:29;9.47;;;6.83;;
37995;SDS011;23808;50.634;6.948;2022-07-05T01:50:35;9.07;;;7.83;;
37995;SDS011;23808;50.634;6.948;2022-07-05T01:54:40;13.17;;;8.30;;
37995;SDS011;23808;50.634;6.948;2022-07-05T01:58:40;10.77;;;8.53;;
37995;SDS011;23808;50.634;6.948;2022-07-05T02:02:42;9.77;;;8.00;;
37995;SDS011;23808;50.634;6.948;2022-07-05T02:06:44;12.00;;;7.90;;
37995;SDS011;23808;50.634;6.948;2022-07-05T02:10:47;10.60;;;8.90;;
37995;SDS011;23808;50.634;6.948;2022-07-05T02:14:48;13.40;;;8.83;;
37995;SDS011;23808;50.634;6.948;2022-07-05T02:18:49;10.43;;;7.30;;
37995;SDS011;23808;50.634;6.948;2022-07-05T02:22:49;12.03;;;8.57;;
37995;SDS011;23808;50.634;6.948;2022-07-05T02:26:50;12.23;;;9.37;;
37995;SDS011;23808;50.634;6.948;2022-07-05T02:30:51;12.50;;;7.97;;
37995;SDS011;23808;50.634;6.948;2022-07-05T02:34:51;13.07;;;8.83;;
37995;SDS011;23808;50.634;6.948;2022-07-05T02:38:52;13.37;;;8.60;;
37995;SDS011;23808;50.634;6.948;2022-07-05T02:42:52;11.83;;;8.37;;
37995;SDS011;23808;50.634;6.948;2022-07-05T02:46:53;10.97;;;8.00;;
37995;SDS011;23808;50.634;6.948;2022-07-05T02:50:54;11.63;;;8.67;;
37995;SDS011;23808;50.634;6.948;2022-07-05T02:54:54;11.57;;;8.87;;
37995;SDS011;23808;50.634;6.948;2022-07-05T02:58:55;14.10;;;8.70;;
37995;SDS011;23808;50.634;6.948;2022-07-05T03:02:56;17.33;;;11.07;;
37995;SDS011;23808;50.634;6.948;2022-07-05T03:06:56;13.97;;;10.40;;
37995;SDS011;23808;50.634;6.948;2022-07-05T03:10:57;15.37;;;10.10;;
37995;SDS011;23808;50.634;6.948;2022-07-05T03:14:57;12.03;;;8.83;;
37995;SDS011;23808;50.634;6.948;2022-07-05T03:18:58;13.23;;;9.23;;
37995;SDS011;23808;50.634;6.948;2022-07-05T03:22:58;15.50;;;9.63;;
37995;SDS011;23808;50.634;6.948;2022-07-05T03:26:59;17.53;;;9.80;;
37995;SDS011;23808;50.634;6.948;2022-07-05T03:31:00;16.50;;;10.10;;
37995;SDS011;23808;50.634;6.948;2022-07-05T03:35:01;19.60;;;9.93;;
37995;SDS011;23808;50.634;6.948;2022-07-05T03:39:01;15.13;;;8.60;;
37995;SDS011;23808;50.634;6.948;2022-07-05T03:43:02;10.73;;;8.13;;
37995;SDS011;23808;50.634;6.948;2022-07-05T03:47:03;12.97;;;9.40;;
37995;SDS011;23808;50.634;6.948;2022-07-05T03:51:03;13.00;;;8.63;;
37995;SDS011;23808;50.634;6.948;2022-07-05T03:55:04;16.07;;;9.17;;
37995;SDS011;23808;50.634;6.948;2022-07-05T03:59:05;14.40;;;9.10;;
37995;SDS011;23808;50.634;6.948;2022-07-05T04:03:06;10.97;;;7.90;;
37995;SDS011;23808;50.634;6.948;2022-07-05T04:07:06;11.50;;;8.40;;
37995;SDS011;23808;50.634;6.948;2022-07-05T04:11:07;9.77;;;7.70;;
37995;SDS011;23808;50.634;6.948;2022-07-05T04:15:09;11.87;;;8.40;;
37995;SDS011;23808;50.634;6.948;2022-07-05T04:19:10;12.43;;;8.70;;
37995;SDS011;23808;50.634;6.948;2022-07-05T04:23:10;14.23;;;9.13;;
37995;SDS011;23808;50.634;6.948;2022-07-05T04:27:11;19.40;;;9.70;;
37995;SDS011;23808;50.634;6.948;2022-07-05T04:31:11;16.80;;;8.77;;
37995;SDS011;23808;50.634;6.948;2022-07-05T04:35:12;13.03;;;10.60;;
37995;SDS011;23808;50.634;6.948;2022-07-05T04:39:14;13.07;;;9.00;;
37995;SDS011;23808;50.634;6.948;2022-07-05T04:43:14;16.27;;;9.80;;
37995;SDS011;23808;50.634;6.948;2022-07-05T04:47:15;15.03;;;9.33;;
37995;SDS011;23808;50.634;6.948;2022-07-05T04:51:15;13.23;;;9.37;;
37995;SDS011;23808;50.634;6.948;2022-07-05T04:55:16;13.80;;;10.30;;
37995;SDS011;23808;50.634;6.948;2022-07-05T04:59:17;14.37;;;10.03;;
37995;SDS011;23808;50.634;6.948;2022-07-05T05:03:17;15.17;;;8.40;;
37995;SDS011;23808;50.634;6.948;2022-07-05T05:07:20;14.60;;;9.03;;
37995;SDS011;23808;50.634;6.948;2022-07-05T05:11:20;12.67;;;8.73;;
37995;SDS011;23808;50.634;6.948;2022-07-05T05:15:21;10.60;;;8.30;;
37995;SDS011;23808;50.634;6.948;2022-07-05T05:19:22;12.23;;;8.03;;
37995;SDS011;23808;50.634;6.948;2022-07-05T05:23:23;16.10;;;9.10;;
37995;SDS011;23808;50.634;6.948;2022-07-05T05:27:24;19.50;;;9.37;;
37995;SDS011;23808;50.634;6.948;2022-07-05T05:31:24;13.33;;;9.30;;
37995;SDS011;23808;50.634;6.948;2022-07-05T05:35:25;10.70;;;9.27;;
37995;SDS011;23808;50.634;6.948;2022-07-05T05:39:26;16.70;;;10.50;;
37995;SDS011;23808;50.634;6.948;2022-07-05T05:43:26;12.97;;;8.73;;
37995;SDS011;23808;50.634;6.948;2022-07-05T05:47:27;13.80;;;10.50;;
37995;SDS011;23808;50.634;6.948;2022-07-05T05:51:27;12.80;;;9.90;;
37995;SDS011;23808;50.634;6.948;2022-07-05T05:55:29;14.63;;;10.63;;
37995;SDS011;23808;50.634;6.948;2022-07-05T05:59:30;17.57;;;10.47;;
37995;SDS011;23808;50.634;6.948;2022-07-05T06:03:31;10.50;;;9.03;;
37995;SDS011;23808;50.634;6.948;2022-07-05T06:07:36;17.43;;;10.07;;
37995;SDS011;23808;50.634;6.948;2022-07-05T06:11:45;14.83;;;10.20;;
37995;SDS011;23808;50.634;6.948;2022-07-05T06:15:46;13.37;;;8.40;;
37995;SDS011;23808;50.634;6.948;2022-07-05T06:19:46;11.20;;;8.40;;
37995;SDS011;23808;50.634;6.948;2022-07-05T06:23:47;12.80;;;8.57;;
37995;SDS011;23808;50.634;6.948;2022-07-05T06:27:48;11.30;;;7.20;;
37995;SDS011;23808;50.634;6.948;2022-07-05T06:31:50;8.33;;;7.43;;
37995;SDS011;23808;50.634;6.948;2022-07-05T06:35:51;15.80;;;9.20;;
37995;SDS011;23808;50.634;6.948;2022-07-05T06:39:52;15.90;;;8.10;;
37995;SDS011;23808;50.634;6.948;2022-07-05T06:43:52;7.70;;;5.37;;
37995;SDS011;23808;50.634;6.948;2022-07-05T06:47:53;10.60;;;7.20;;
37995;SDS011;23808;50.634;6.948;2022-07-05T06:51:54;10.77;;;7.30;;
37995;SDS011;23808;50.634;6.948;2022-07-05T06:55:55;13.10;;;7.17;;
37995;SDS011;23808;50.634;6.948;2022-07-05T06:59:55;17.33;;;6.43;;
37995;SDS011;23808;50.634;6.948;2022-07-05T07:03:56;8.00;;;6.20;;
37995;SDS011;23808;50.634;6.948;2022-07-05T07:07:57;11.77;;;6.67;;
37995;SDS011;23808;50.634;6.948;2022-07-05T07:12:16;6.10;;;5.50;;
37995;SDS011;23808;50.634;6.948;2022-07-05T07:16:17;13.77;;;7.03;;
37995;SDS011;23808;50.634;6.948;2022-07-05T07:20:18;5.63;;;5.13;;
37995;SDS011;23808;50.634;6.948;2022-07-05T07:24:18;10.00;;;5.63;;
37995;SDS011;23808;50.634;6.948;2022-07-05T07:28:22;8.93;;;6.63;;
37995;SDS011;23808;50.634;6.948;2022-07-05T07:32:24;8.93;;;6.20;;
37995;SDS011;23808;50.634;6.948;2022-07-05T07:36:24;11.07;;;6.30;;
37995;SDS011;23808;50.634;6.948;2022-07-05T07:40:25;7.83;;;4.50;;
37995;SDS011;23808;50.634;6.948;2022-07-05T07:44:25;6.90;;;5.87;;
37995;SDS011;23808;50.634;6.948;2022-07-05T07:48:26;7.50;;;4.90;;
37995;SDS011;23808;50.634;6.948;2022-07-05T07:52:28;5.80;;;5.30;;
37995;SDS011;23808;50.634;6.948;2022-07-05T07:56:30;7.27;;;5.00;;
37995;SDS011;23808;50.634;6.948;2022-07-05T08:00:31;4.43;;;4.03;;
37995;SDS011;23808;50.634;6.948;2022-07-05T08:04:32;5.97;;;4.60;;
37995;SDS011;23808;50.634;6.948;2022-07-05T08:08:33;5.13;;;4.20;;
37995;SDS011;23808;50.634;6.948;2022-07-05T08:12:40;5.80;;;4.03;;
37995;SDS011;23808;50.634;6.948;2022-07-05T08:16:41;9.63;;;5.40;;
37995;SDS011;23808;50.634;6.948;2022-07-05T08:20:42;7.20;;;4.23;;
37995;SDS011;23808;50.634;6.948;2022-07-05T08:25:01;13.73;;;6.50;;
37995;SDS011;23808;50.634;6.948;2022-07-05T08:29:03;18.50;;;5.20;;
37995;SDS011;23808;50.634;6.948;2022-07-05T08:33:06;5.40;;;4.20;;
37995;SDS011;23808;50.634;6.948;2022-07-05T08:37:06;5.87;;;4.57;;
37995;SDS011;23808;50.634;6.948;2022-07-05T08:41:08;5.20;;;4.00;;
37995;SDS011;23808;50.634;6.948;2022-07-05T08:45:11;6.50;;;4.93;;
37995;SDS011;23808;50.634;6.948;2022-07-05T08:49:13;5.30;;;4.80;;
37995;SDS011;23808;50.634;6.948;2022-07-05T08:53:15;3.53;;;3.07;;
37995;SDS011;23808;50.634;6.948;2022-07-05T08:57:15;8.30;;;4.30;;
37995;SDS011;23808;50.634;6.948;2022-07-05T09:01:16;7.80;;;5.20;;
37995;SDS011;23808;50.634;6.948;2022-07-05T09:05:17;4.50;;;4.10;;
37995;SDS011;23808;50.634;6.948;2022-07-05T09:09:18;3.60;;;3.30;;
37995;SDS011;23808;50.634;6.948;2022-07-05T09:13:20;3.17;;;2.87;;
37995;SDS011;23808;50.634;6.948;2022-07-05T09:17:22;4.07;;;3.67;;
37995;SDS011;23808;50.634;6.948;2022-07-05T09:21:27;7.53;;;4.20;;
37995;SDS011;23808;50.634;6.948;2022-07-05T09:25:31;5.80;;;3.20;;
37995;SDS011;23808;50.634;6.948;2022-07-05T09:29:32;3.90;;;3.10;;
37995;SDS011;23808;50.634;6.948;2022-07-05T09:33:33;5.77;;;4.23;;
37995;SDS011;23808;50.634;6.948;2022-07-05T09:37:42;3.30;;;3.10;;
37995;SDS011;23808;50.634;6.948;2022-07-05T09:41:46;4.40;;;2.90;;
37995;SDS011;23808;50.634;6.948;2022-07-05T09:45:53;10.90;;;3.90;;
37995;SDS011;23808;50.634;6.948;2022-07-05T09:50:01;4.33;;;3.93;;
37995;SDS011;23808;50.634;6.948;2022-07-05T09:54:06;6.30;;;4.00;;
37995;SDS011;23808;50.634;6.948;2022-07-05T09:58:07;4.53;;;2.60;;
37995;SDS011;23808;50.634;6.948;2022-07-05T10:02:08;2.37;;;2.13;;
37995;SDS011;23808;50.634;6.948;2022-07-05T10:06:11;4.33;;;2.13;;
37995;SDS011;23808;50.634;6.948;2022-07-05T10:10:13;2.33;;;2.00;;
37995;SDS011;23808;50.634;6.948;2022-07-05T10:14:16;5.37;;;2.47;;
37995;SDS011;23808;50.634;6.948;2022-07-05T10:18:22;2.90;;;1.83;;
37995;SDS011;23808;50.634;6.948;2022-07-05T10:22:31;3.10;;;2.43;;
37995;SDS011;23808;50.634;6.948;2022-07-05T10:26:32;1.87;;;1.77;;
37995;SDS011;23808;50.634;6.948;2022-07-05T10:30:34;2.40;;;1.97;;
37995;SDS011;23808;50.634;6.948;2022-07-05T10:34:35;1.60;;;1.20;;
37995;SDS011;23808;50.634;6.948;2022-07-05T10:38:42;3.43;;;1.30;;
37995;SDS011;23808;50.634;6.948;2022-07-05T10:42:46;10.60;;;1.43;;
37995;SDS011;23808;50.634;6.948;2022-07-05T10:46:53;6.03;;;1.97;;
37995;SDS011;23808;50.634;6.948;2022-07-05T10:55:21;1.90;;;1.80;;
37995;SDS011;23808;50.634;6.948;2022-07-05T10:59:24;1.43;;;1.33;;
37995;SDS011;23808;50.634;6.948;2022-07-05T11:08:04;4.13;;;1.33;;
37995;SDS011;23808;50.634;6.948;2022-07-05T11:12:05;4.13;;;1.23;;
37995;SDS011;23808;50.634;6.948;2022-07-05T11:16:19;4.03;;;1.03;;
37995;SDS011;23808;50.634;6.948;2022-07-05T11:24:31;1.63;;;1.53;;
37995;SDS011;23808;50.634;6.948;2022-07-05T11:28:43;1.73;;;1.43;;
37995;SDS011;23808;50.634;6.948;2022-07-05T11:32:45;2.03;;;1.47;;
37995;SDS011;23808;50.634;6.948;2022-07-05T11:36:45;2.67;;;1.33;;
37995;SDS011;23808;50.634;6.948;2022-07-05T11:41:34;1.40;;;1.30;;
37995;SDS011;23808;50.634;6.948;2022-07-05T11:45:37;1.80;;;1.57;;
37995;SDS011;23808;50.634;6.948;2022-07-05T11:49:38;3.13;;;1.40;;
37995;SDS011;23808;50.634;6.948;2022-07-05T11:53:39;1.70;;;1.20;;
37995;SDS011;23808;50.634;6.948;2022-07-05T11:57:50;3.27;;;1.50;;
37995;SDS011;23808;50.634;6.948;2022-07-05T12:01:52;2.93;;;1.40;;
37995;SDS011;23808;50.634;6.948;2022-07-05T12:05:53;1.90;;;1.67;;
37995;SDS011;23808;50.634;6.948;2022-07-05T12:09:54;5.83;;;1.73;;
37995;SDS011;23808;50.634;6.948;2022-07-05T12:14:21;2.07;;;1.53;;
37995;SDS011;23808;50.634;6.948;2022-07-05T12:18:22;1.50;;;1.40;;
37995;SDS011;23808;50.634;6.948;2022-07-05T12:22:28;2.40;;;1.50;;
37995;SDS011;23808;50.634;6.948;2022-07-05T12:26:28;1.20;;;1.10;;
37995;SDS011;23808;50.634;6.948;2022-07-05T12:30:30;2.23;;;1.40;;
37995;SDS011;23808;50.634;6.948;2022-07-05T12:34:31;2.03;;;1.83;;
37995;SDS011;23808;50.634;6.948;2022-07-05T12:38:32;2.40;;;1.30;;
37995;SDS011;23808;50.634;6.948;2022-07-05T12:42:33;4.20;;;1.73;;
37995;SDS011;23808;50.634;6.948;2022-07-05T12:50:44;2.07;;;1.70;;
37995;SDS011;23808;50.634;6.948;2022-07-05T12:55:08;5.07;;;1.70;;
37995;SDS011;23808;50.634;6.948;2022-07-05T13:00:05;3.00;;;1.97;;
37995;SDS011;23808;50.634;6.948;2022-07-05T13:04:09;1.93;;;1.83;;
37995;SDS011;23808;50.634;6.948;2022-07-05T13:08:26;2.00;;;1.90;;
37995;SDS011;23808;50.634;6.948;2022-07-05T13:12:28;3.47;;;2.10;;
37995;SDS011;23808;50.634;6.948;2022-07-05T13:16:29;2.00;;;1.90;;
37995;SDS011;23808;50.634;6.948;2022-07-05T13:20:30;5.70;;;1.80;;
37995;SDS011;23808;50.634;6.948;2022-07-05T13:24:30;3.57;;;2.00;;
37995;SDS011;23808;50.634;6.948;2022-07-05T13:28:32;1.80;;;1.70;;
37995;SDS011;23808;50.634;6.948;2022-07-05T13:32:32;4.63;;;2.17;;
37995;SDS011;23808;50.634;6.948;2022-07-05T13:36:33;3.60;;;1.90;;
37995;SDS011;23808;50.634;6.948;2022-07-05T13:40:33;2.17;;;1.73;;
37995;SDS011;23808;50.634;6.948;2022-07-05T13:44:34;2.00;;;1.87;;
37995;SDS011;23808;50.634;6.948;2022-07-05T13:48:35;7.20;;;2.03;;
37995;SDS011;23808;50.634;6.948;2022-07-05T13:52:35;5.47;;;1.70;;
37995;SDS011;23808;50.634;6.948;2022-07-05T13:56:36;3.10;;;2.53;;
37995;SDS011;23808;50.634;6.948;2022-07-05T14:00:37;1.90;;;1.80;;
37995;SDS011;23808;50.634;6.948;2022-07-05T14:04:37;5.53;;;2.07;;
37995;SDS011;23808;50.634;6.948;2022-07-05T14:08:38;9.13;;;2.37;;
37995;SDS011;23808;50.634;6.948;2022-07-05T14:12:38;2.43;;;1.90;;
37995;SDS011;23808;50.634;6.948;2022-07-05T14:16:39;1.80;;;1.43;;
37995;SDS011;23808;50.634;6.948;2022-07-05T14:20:40;2.30;;;2.10;;
37995;SDS011;23808;50.634;6.948;2022-07-05T14:24:41;1.77;;;1.67;;
37995;SDS011;23808;50.634;6.948;2022-07-05T14:28:42;3.60;;;1.97;;
37995;SDS011;23808;50.634;6.948;2022-07-05T14:32:42;2.30;;;1.33;;
37995;SDS011;23808;50.634;6.948;2022-07-05T14:36:43;1.67;;;1.57;;
37995;SDS011;23808;50.634;6.948;2022-07-05T14:40:44;1.80;;;1.70;;
37995;SDS011;23808;50.634;6.948;2022-07-05T14:44:44;1.63;;;1.53;;
37995;SDS011;23808;50.634;6.948;2022-07-05T14:48:45;2.80;;;1.50;;
37995;SDS011;23808;50.634;6.948;2022-07-05T14:52:47;2.13;;;1.40;;
37995;SDS011;23808;50.634;6.948;2022-07-05T14:56:48;3.13;;;1.40;;
37995;SDS011;23808;50.634;6.948;2022-07-05T15:00:49;10.90;;;2.20;;
37995;SDS011;23808;50.634;6.948;2022-07-05T15:04:50;1.63;;;1.53;;
37995;SDS011;23808;50.634;6.948;2022-07-05T15:08:50;2.13;;;1.93;;
37995;SDS011;23808;50.634;6.948;2022-07-05T15:12:52;4.77;;;1.40;;
37995;SDS011;23808;50.634;6.948;2022-07-05T15:16:53;6.57;;;1.77;;
37995;SDS011;23808;50.634;6.948;2022-07-05T15:20:57;2.87;;;1.57;;
37995;SDS011;23808;50.634;6.948;2022-07-05T15:24:57;2.20;;;1.40;;
37995;SDS011;23808;50.634;6.948;2022-07-05T15:29:04;2.70;;;1.70;;
37995;SDS011;23808;50.634;6.948;2022-07-05T15:33:06;3.00;;;1.97;;
37995;SDS011;23808;50.634;6.948;2022-07-05T15:37:09;5.47;;;2.10;;
37995;SDS011;23808;50.634;6.948;2022-07-05T15:41:10;4.20;;;1.93;;
37995;SDS011;23808;50.634;6.948;2022-07-05T15:45:10;2.07;;;1.80;;
37995;SDS011;23808;50.634;6.948;2022-07-05T15:49:11;2.43;;;1.40;;
37995;SDS011;23808;50.634;6.948;2022-07-05T15:53:12;3.97;;;1.87;;
37995;SDS011;23808;50.634;6.948;2022-07-05T15:57:12;4.27;;;2.40;;
37995;SDS011;23808;50.634;6.948;2022-07-05T16:01:13;1.80;;;1.37;;
37995;SDS011;23808;50.634;6.948;2022-07-05T16:05:14;3.00;;;1.43;;
37995;SDS011;23808;50.634;6.948;2022-07-05T16:09:15;6.53;;;1.87;;
37995;SDS011;23808;50.634;6.948;2022-07-05T16:13:15;2.30;;;1.70;;
37995;SDS011;23808;50.634;6.948;2022-07-05T16:17:17;1.73;;;1.33;;
37995;SDS011;23808;50.634;6.948;2022-07-05T16:21:17;1.80;;;1.70;;
37995;SDS011;23808;50.634;6.948;2022-07-05T16:25:18;4.13;;;1.80;;
37995;SDS011;23808;50.634;6.948;2022-07-05T16:29:19;2.57;;;1.50;;
37995;SDS011;23808;50.634;6.948;2022-07-05T16:33:19;2.13;;;1.63;;
37995;SDS011;23808;50.634;6.948;2022-07-05T16:37:20;2.27;;;2.07;;
37995;SDS011;23808;50.634;6.948;2022-07-05T16:41:21;21.97;;;1.97;;
37995;SDS011;23808;50.634;6.948;2022-07-05T16:45:21;2.00;;;1.70;;
37995;SDS011;23808;50.634;6.948;2022-07-05T16:49:22;1.77;;;1.67;;
37995;SDS011;23808;50.634;6.948;2022-07-05T16:53:22;2.40;;;1.53;;
37995;SDS011;23808;50.634;6.948;2022-07-05T16:57:23;1.50;;;1.40;;
37995;SDS011;23808;50.634;6.948;2022-07-05T17:01:24;3.33;;;1.70;;
37995;SDS011;23808;50.634;6.948;2022-07-05T17:05:25;4.03;;;1.93;;
37995;SDS011;23808;50.634;6.948;2022-07-05T17:09:26;4.20;;;1.73;;
37995;SDS011;23808;50.634;6.948;2022-07-05T17:13:27;4.27;;;2.40;;
37995;SDS011;23808;50.634;6.948;2022-07-05T17:17:28;2.30;;;1.90;;
37995;SDS011;23808;50.634;6.948;2022-07-05T17:21:28;2.80;;;2.20;;
37995;SDS011;23808;50.634;6.948;2022-07-05T17:25:29;2.50;;;2.30;;
37995;SDS011;23808;50.634;6.948;2022-07-05T17:29:30;4.00;;;2.40;;
37995;SDS011;23808;50.634;6.948;2022-07-05T17:33:31;3.73;;;3.40;;
37995;SDS011;23808;50.634;6.948;2022-07-05T17:37:32;3.47;;;3.20;;
37995;SDS011;23808;50.634;6.948;2022-07-05T17:41:32;4.30;;;3.27;;
37995;SDS011;23808;50.634;6.948;2022-07-05T17:45:33;5.43;;;3.50;;
37995;SDS011;23808;50.634;6.948;2022-07-05T17:49:33;4.30;;;3.47;;
37995;SDS011;23808;50.634;6.948;2022-07-05T17:53:34;7.67;;;3.93;;
37995;SDS011;23808;50.634;6.948;2022-07-05T17:57:35;12.20;;;3.30;;
37995;SDS011;23808;50.634;6.948;2022-07-05T18:01:35;4.30;;;3.87;;
37995;SDS011;23808;50.634;6.948;2022-07-05T18:05:36;4.57;;;3.70;;
37995;SDS011;23808;50.634;6.948;2022-07-05T18:09:36;5.97;;;4.17;;
37995;SDS011;23808;50.634;6.948;2022-07-05T18:13:37;7.03;;;3.70;;
37995;SDS011;23808;50.634;6.948;2022-07-05T18:17:38;4.23;;;3.80;;
37995;SDS011;23808;50.634;6.948;2022-07-05T18:21:38;7.27;;;3.53;;
37995;SDS011;23808;50.634;6.948;2022-07-05T18:25:39;4.87;;;4.40;;
37995;SDS011;23808;50.634;6.948;2022-07-05T18:29:40;6.00;;;3.60;;
37995;SDS011;23808;50.634;6.948;2022-07-05T18:33:41;4.23;;;3.43;;
37995;SDS011;23808;50.634;6.948;2022-07-05T18:37:42;4.80;;;2.87;;
37995;SDS011;23808;50.634;6.948;2022-07-05T18:41:43;5.23;;;3.17;;
37995;SDS011;23808;50.634;6.948;2022-07-05T18:45:44;9.90;;;4.53;;
37995;SDS011;23808;50.634;6.948;2022-07-05T18:49:44;9.33;;;3.57;;
37995;SDS011;23808;50.634;6.948;2022-07-05T18:53:45;6.37;;;3.80;;
37995;SDS011;23808;50.634;6.948;2022-07-05T18:57:46;8.80;;;4.00;;
37995;SDS011;23808;50.634;6.948;2022-07-05T19:01:47;8.77;;;3.80;;
37995;SDS011;23808;50.634;6.948;2022-07-05T19:05:47;4.20;;;3.50;;
37995;SDS011;23808;50.634;6.948;2022-07-05T19:10:07;3.60;;;3.30;;
37995;SDS011;23808;50.634;6.948;2022-07-05T19:14:26;3.73;;;2.70;;
37995;SDS011;23808;50.634;6.948;2022-07-05T19:18:27;3.20;;;2.90;;
37995;SDS011;23808;50.634;6.948;2022-07-05T19:22:27;3.27;;;2.90;;
37995;SDS011;23808;50.634;6.948;2022-07-05T19:26:28;6.37;;;2.83;;
37995;SDS011;23808;50.634;6.948;2022-07-05T19:30:29;4.60;;;3.53;;
37995;SDS011;23808;50.634;6.948;2022-07-05T19:34:29;4.30;;;2.87;;
37995;SDS011;23808;50.634;6.948;2022-07-05T19:38:30;2.40;;;2.20;;
37995;SDS011;23808;50.634;6.948;2022-07-05T19:42:31;3.27;;;2.50;;
37995;SDS011;23808;50.634;6.948;2022-07-05T19:46:31;7.70;;;2.60;;
37995;SDS011;23808;50.634;6.948;2022-07-05T19:50:32;4.70;;;3.13;;
37995;SDS011;23808;50.634;6.948;2022-07-05T19:54:33;4.80;;;2.67;;
37995;SDS011;23808;50.634;6.948;2022-07-05T19:58:33;4.30;;;2.83;;
37995;SDS011;23808;50.634;6.948;2022-07-05T20:02:34;2.40;;;2.20;;
37995;SDS011;23808;50.634;6.948;2022-07-05T20:06:35;4.90;;;2.03;;
37995;SDS011;23808;50.634;6.948;2022-07-05T20:10:35;3.27;;;2.30;;
37995;SDS011;23808;50.634;6.948;2022-07-05T20:14:36;13.10;;;2.40;;
37995;SDS011;23808;50.634;6.948;2022-07-05T20:18:37;2.50;;;2.13;;
37995;SDS011;23808;50.634;6.948;2022-07-05T20:22:38;6.40;;;1.97;;
37995;SDS011;23808;50.634;6.948;2022-07-05T20:26:38;1.97;;;1.80;;
37995;SDS011;23808;50.634;6.948;2022-07-05T20:30:39;2.77;;;2.50;;
37995;SDS011;23808;50.634;6.948;2022-07-05T20:34:40;2.50;;;2.30;;
37995;SDS011;23808;50.634;6.948;2022-07-05T20:38:41;2.20;;;1.73;;
37995;SDS011;23808;50.634;6.948;2022-07-05T20:42:42;3.80;;;2.40;;
37995;SDS011;23808;50.634;6.948;2022-07-05T20:46:43;10.23;;;4.00;;
37995;SDS011;23808;50.634;6.948;2022-07-05T20:50:43;3.70;;;2.47;;
37995;SDS011;23808;50.634;6.948;2022-07-05T20:54:44;5.87;;;3.90;;
37995;SDS011;23808;50.634;6.948;2022-07-05T20:58:44;5.17;;;2.57;;
37995;SDS011;23808;50.634;6.948;2022-07-05T21:02:45;4.70;;;2.00;;
37995;SDS011;23808;50.634;6.948;2022-07-05T21:06:46;11.03;;;3.07;;
37995;SDS011;23808;50.634;6.948;2022-07-05T21:10:47;4.70;;;2.43;;
37995;SDS011;23808;50.634;6.948;2022-07-05T21:14:47;3.27;;;2.40;;
37995;SDS011;23808;50.634;6.948;2022-07-05T21:18:48;2.40;;;2.20;;
37995;SDS011;23808;50.634;6.948;2022-07-05T21:22:49;2.53;;;2.33;;
37995;SDS011;23808;50.634;6.948;2022-07-05T21:26:50;5.73;;;2.27;;
37995;SDS011;23808;50.634;6.948;2022-07-05T21:30:50;4.00;;;2.13;;
37995;SDS011;23808;50.634;6.948;2022-07-05T21:34:51;4.23;;;2.60;;
37995;SDS011;23808;50.634;6.948;2022-07-05T21:38:51;2.83;;;2.53;;
37995;SDS011;23808;50.634;6.948;2022-07-05T21:42:52;3.07;;;1.90;;
37995;SDS011;23808;50.634;6.948;2022-07-05T21:46:55;2.77;;;2.63;;
37995;SDS011;23808;50.634;6.948;2022-07-05T21:50:56;6.67;;;2.60;;
37995;SDS011;23808;50.634;6.948;2022-07-05T21:54:57;7.13;;;2.80;;
37995;SDS011;23808;50.634;6.948;2022-07-05T21:58:57;4.67;;;2.03;;
37995;SDS011;23808;50.634;6.948;2022-07-05T22:03:16;3.80;;;2.10;;
37995;SDS011;23808;50.634;6.948;2022-07-05T22:07:35;2.40;;;2.30;;
37995;SDS011;23808;50.634;6.948;2022-07-05T22:11:36;4.17;;;2.73;;
37995;SDS011;23808;50.634;6.948;2022-07-05T22:15:37;6.17;;;2.97;;
37995;SDS011;23808;50.634;6.948;2022-07-05T22:19:37;2.60;;;2.37;;
37995;SDS011;23808;50.634;6.948;2022-07-05T22:23:38;7.30;;;2.23;;
37995;SDS011;23808;50.634;6.948;2022-07-05T22:27:38;3.10;;;2.20;;
37995;SDS011;23808;50.634;6.948;2022-07-05T22:31:39;2.50;;;1.93;;
37995;SDS011;23808;50.634;6.948;2022-07-05T22:35:40;2.93;;;2.30;;
37995;SDS011;23808;50.634;6.948;2022-07-05T22:39:40;7.50;;;2.57;;
37995;SDS011;23808;50.634;6.948;2022-07-05T22:43:41;4.93;;;3.43;;
37995;SDS011;23808;50.634;6.948;2022-07-05T22:47:41;4.40;;;1.87;;
37995;SDS011;23808;50.634;6.948;2022-07-05T22:51:42;9.00;;;2.60;;
37995;SDS011;23808;50.634;6.948;2022-07-05T22:55:43;2.60;;;1.90;;
37995;SDS011;23808;50.634;6.948;2022-07-05T22:59:43;3.63;;;2.53;;
37995;SDS011;23808;50.634;6.948;2022-07-05T23:03:44;2.77;;;2.57;;
37995;SDS011;23808;50.634;6.948;2022-07-05T23:07:44;3.13;;;2.53;;
37995;SDS011;23808;50.634;6.948;2022-07-05T23:11:45;7.53;;;3.00;;
37995;SDS011;23808;50.634;6.948;2022-07-05T23:15:46;3.23;;;1.97;;
37995;SDS011;23808;50.634;6.948;2022-07-05T23:19:46;5.60;;;2.23;;
37995;SDS011;23808;50.634;6.948;2022-07-05T23:23:47;8.50;;;2.37;;
37995;SDS011;23808;50.634;6.948;2022-07-05T23:28:08;3.33;;;2.37;;
37995;SDS011;23808;50.634;6.948;2022-07-05T23:32:08;9.23;;;2.67;;
37995;SDS011;23808;50.634;6.948;2022-07-05T23:36:09;4.93;;;3.00;;
37995;SDS011;23808;50.634;6.948;2022-07-05T23:40:09;4.50;;;2.77;;
37995;SDS011;23808;50.634;6.948;2022-07-05T23:44:10;3.97;;;2.17;;
37995;SDS011;23808;50.634;6.948;2022-07-05T23:48:11;7.60;;;2.87;;
37995;SDS011;23808;50.634;6.948;2022-07-05T23:52:11;3.30;;;2.27;;
37995;SDS011;23808;50.634;6.948;2022-07-05T23:56:12;6.03;;;2.00;;
